sensor_id;sensor_type;location;lat;lon;timestamp;P1;durP1;ratioP1;P2;durP2;ratioP2
46355;SDS011;32066;49.474;11.106;2022-08-19T00:00:48;22.30;;;19.98;;
46355;SDS011;32066;49.474;11.106;2022-08-19T00:03:16;21.73;;;19.42;;
46355;SDS011;32066;49.474;11.106;2022-08-19T00:05:44;21.75;;;19.55;;
46355;SDS011;32066;49.474;11.106;2022-08-19T00:08:11;21.50;;;19.20;;
46355;SDS011;32066;49.474;11.106;2022-08-19T00:10:38;20.90;;;18.70;;
46355;SDS011;32066;49.474;11.106;2022-08-19T00:13:05;22.20;;;19.40;;
46355;SDS011;32066;49.474;11.106;2022-08-19T00:15:32;21.67;;;18.27;;
46355;SDS011;32066;49.474;11.106;2022-08-19T00:17:59;19.67;;;17.67;;
46355;SDS011;32066;49.474;11.106;2022-08-19T00:20:26;19.15;;;16.95;;
46355;SDS011;32066;49.474;11.106;2022-08-19T00:22:54;20.02;;;17.85;;
46355;SDS011;32066;49.474;11.106;2022-08-19T00:25:21;20.63;;;18.42;;
46355;SDS011;32066;49.474;11.106;2022-08-19T00:27:48;20.75;;;18.55;;
46355;SDS011;32066;49.474;11.106;2022-08-19T00:30:15;20.75;;;18.65;;
46355;SDS011;32066;49.474;11.106;2022-08-19T00:32:42;20.02;;;17.98;;
46355;SDS011;32066;49.474;11.106;2022-08-19T00:35:09;19.67;;;17.67;;
46355;SDS011;32066;49.474;11.106;2022-08-19T00:37:37;20.55;;;18.40;;
46355;SDS011;32066;49.474;11.106;2022-08-19T00:40:11;21.23;;;17.98;;
46355;SDS011;32066;49.474;11.106;2022-08-19T00:42:38;19.77;;;17.70;;
46355;SDS011;32066;49.474;11.106;2022-08-19T00:45:08;21.85;;;18.42;;
46355;SDS011;32066;49.474;11.106;2022-08-19T00:47:37;20.23;;;18.13;;
46355;SDS011;32066;49.474;11.106;2022-08-19T00:50:05;18.95;;;17.00;;
46355;SDS011;32066;49.474;11.106;2022-08-19T00:52:35;20.33;;;18.15;;
46355;SDS011;32066;49.474;11.106;2022-08-19T00:55:07;19.20;;;17.25;;
46355;SDS011;32066;49.474;11.106;2022-08-19T00:57:37;19.92;;;17.77;;
46355;SDS011;32066;49.474;11.106;2022-08-19T01:00:08;19.15;;;17.15;;
46355;SDS011;32066;49.474;11.106;2022-08-19T01:02:38;19.13;;;17.10;;
46355;SDS011;32066;49.474;11.106;2022-08-19T01:05:08;18.33;;;16.42;;
46355;SDS011;32066;49.474;11.106;2022-08-19T01:07:37;17.85;;;16.13;;
46355;SDS011;32066;49.474;11.106;2022-08-19T01:10:07;18.67;;;16.67;;
46355;SDS011;32066;49.474;11.106;2022-08-19T01:12:37;18.88;;;16.88;;
46355;SDS011;32066;49.474;11.106;2022-08-19T01:15:05;20.13;;;18.02;;
46355;SDS011;32066;49.474;11.106;2022-08-19T01:17:35;21.10;;;18.77;;
46355;SDS011;32066;49.474;11.106;2022-08-19T01:20:05;20.98;;;18.88;;
46355;SDS011;32066;49.474;11.106;2022-08-19T01:22:38;22.33;;;19.65;;
46355;SDS011;32066;49.474;11.106;2022-08-19T01:25:09;21.25;;;19.10;;
46355;SDS011;32066;49.474;11.106;2022-08-19T01:27:37;23.08;;;19.77;;
46355;SDS011;32066;49.474;11.106;2022-08-19T01:30:06;22.33;;;20.10;;
46355;SDS011;32066;49.474;11.106;2022-08-19T01:32:34;22.25;;;20.00;;
46355;SDS011;32066;49.474;11.106;2022-08-19T01:35:02;23.73;;;21.23;;
46355;SDS011;32066;49.474;11.106;2022-08-19T01:37:40;24.45;;;20.25;;
46355;SDS011;32066;49.474;11.106;2022-08-19T01:40:10;26.92;;;21.65;;
46355;SDS011;32066;49.474;11.106;2022-08-19T01:42:37;23.10;;;20.80;;
46355;SDS011;32066;49.474;11.106;2022-08-19T01:45:04;22.45;;;20.15;;
46355;SDS011;32066;49.474;11.106;2022-08-19T01:47:33;22.85;;;20.50;;
46355;SDS011;32066;49.474;11.106;2022-08-19T01:50:01;23.70;;;21.30;;
46355;SDS011;32066;49.474;11.106;2022-08-19T01:52:28;22.80;;;20.50;;
46355;SDS011;32066;49.474;11.106;2022-08-19T01:54:56;23.02;;;20.60;;
46355;SDS011;32066;49.474;11.106;2022-08-19T01:57:23;24.63;;;22.05;;
46355;SDS011;32066;49.474;11.106;2022-08-19T01:59:51;23.27;;;19.90;;
46355;SDS011;32066;49.474;11.106;2022-08-19T02:02:18;22.55;;;19.35;;
46355;SDS011;32066;49.474;11.106;2022-08-19T02:04:45;21.77;;;19.55;;
46355;SDS011;32066;49.474;11.106;2022-08-19T02:07:12;23.02;;;20.38;;
46355;SDS011;32066;49.474;11.106;2022-08-19T02:09:38;23.60;;;21.20;;
46355;SDS011;32066;49.474;11.106;2022-08-19T02:12:07;22.80;;;19.95;;
46355;SDS011;32066;49.474;11.106;2022-08-19T02:14:34;22.30;;;19.95;;
46355;SDS011;32066;49.474;11.106;2022-08-19T02:17:02;23.80;;;21.42;;
46355;SDS011;32066;49.474;11.106;2022-08-19T02:19:29;26.00;;;21.30;;
46355;SDS011;32066;49.474;11.106;2022-08-19T02:21:57;22.95;;;20.40;;
46355;SDS011;32066;49.474;11.106;2022-08-19T02:24:24;21.70;;;19.50;;
46355;SDS011;32066;49.474;11.106;2022-08-19T02:26:51;23.70;;;20.95;;
46355;SDS011;32066;49.474;11.106;2022-08-19T02:29:20;24.42;;;21.80;;
46355;SDS011;32066;49.474;11.106;2022-08-19T02:31:49;22.88;;;20.48;;
46355;SDS011;32066;49.474;11.106;2022-08-19T02:34:16;23.58;;;21.20;;
46355;SDS011;32066;49.474;11.106;2022-08-19T02:36:43;23.42;;;20.90;;
46355;SDS011;32066;49.474;11.106;2022-08-19T02:39:10;22.75;;;20.40;;
46355;SDS011;32066;49.474;11.106;2022-08-19T02:41:36;24.92;;;22.23;;
46355;SDS011;32066;49.474;11.106;2022-08-19T02:44:03;23.75;;;21.17;;
46355;SDS011;32066;49.474;11.106;2022-08-19T02:46:32;24.92;;;22.23;;
46355;SDS011;32066;49.474;11.106;2022-08-19T02:49:01;25.58;;;21.70;;
46355;SDS011;32066;49.474;11.106;2022-08-19T02:51:31;24.52;;;21.92;;
46355;SDS011;32066;49.474;11.106;2022-08-19T02:53:59;25.17;;;22.55;;
46355;SDS011;32066;49.474;11.106;2022-08-19T02:56:26;23.45;;;20.95;;
46355;SDS011;32066;49.474;11.106;2022-08-19T02:58:53;23.33;;;20.83;;
46355;SDS011;32066;49.474;11.106;2022-08-19T03:01:21;23.85;;;21.45;;
46355;SDS011;32066;49.474;11.106;2022-08-19T03:03:51;24.75;;;22.13;;
46355;SDS011;32066;49.474;11.106;2022-08-19T03:06:18;24.80;;;22.17;;
46355;SDS011;32066;49.474;11.106;2022-08-19T03:08:46;24.90;;;22.52;;
46355;SDS011;32066;49.474;11.106;2022-08-19T03:11:16;24.50;;;22.00;;
46355;SDS011;32066;49.474;11.106;2022-08-19T03:13:45;24.33;;;21.73;;
46355;SDS011;32066;49.474;11.106;2022-08-19T03:16:14;25.23;;;22.33;;
46355;SDS011;32066;49.474;11.106;2022-08-19T03:18:41;24.75;;;22.05;;
46355;SDS011;32066;49.474;11.106;2022-08-19T03:21:14;25.38;;;22.58;;
46355;SDS011;32066;49.474;11.106;2022-08-19T03:23:41;25.15;;;22.48;;
46355;SDS011;32066;49.474;11.106;2022-08-19T03:26:08;23.88;;;21.38;;
46355;SDS011;32066;49.474;11.106;2022-08-19T03:28:35;22.95;;;20.48;;
46355;SDS011;32066;49.474;11.106;2022-08-19T03:31:03;24.30;;;21.75;;
46355;SDS011;32066;49.474;11.106;2022-08-19T03:33:33;23.77;;;21.35;;
46355;SDS011;32066;49.474;11.106;2022-08-19T03:36:01;23.85;;;21.45;;
46355;SDS011;32066;49.474;11.106;2022-08-19T03:38:33;23.70;;;21.20;;
46355;SDS011;32066;49.474;11.106;2022-08-19T03:41:04;24.17;;;21.63;;
46355;SDS011;32066;49.474;11.106;2022-08-19T03:43:33;24.45;;;21.85;;
46355;SDS011;32066;49.474;11.106;2022-08-19T03:46:06;24.98;;;22.33;;
46355;SDS011;32066;49.474;11.106;2022-08-19T03:48:34;24.10;;;21.60;;
46355;SDS011;32066;49.474;11.106;2022-08-19T03:51:03;24.30;;;21.80;;
46355;SDS011;32066;49.474;11.106;2022-08-19T03:53:32;23.90;;;21.27;;
46355;SDS011;32066;49.474;11.106;2022-08-19T03:56:01;26.67;;;22.67;;
46355;SDS011;32066;49.474;11.106;2022-08-19T03:58:29;24.25;;;21.75;;
46355;SDS011;32066;49.474;11.106;2022-08-19T04:00:56;25.55;;;22.48;;
46355;SDS011;32066;49.474;11.106;2022-08-19T04:03:24;25.60;;;22.92;;
46355;SDS011;32066;49.474;11.106;2022-08-19T04:05:52;24.77;;;22.25;;
46355;SDS011;32066;49.474;11.106;2022-08-19T04:08:19;25.95;;;23.30;;
46355;SDS011;32066;49.474;11.106;2022-08-19T04:10:49;25.50;;;22.90;;
46355;SDS011;32066;49.474;11.106;2022-08-19T04:13:16;26.90;;;24.00;;
46355;SDS011;32066;49.474;11.106;2022-08-19T04:15:45;26.90;;;24.00;;
46355;SDS011;32066;49.474;11.106;2022-08-19T04:18:12;28.30;;;24.23;;
46355;SDS011;32066;49.474;11.106;2022-08-19T04:20:41;26.85;;;23.95;;
46355;SDS011;32066;49.474;11.106;2022-08-19T04:23:08;28.27;;;24.80;;
46355;SDS011;32066;49.474;11.106;2022-08-19T04:25:36;26.65;;;23.65;;
46355;SDS011;32066;49.474;11.106;2022-08-19T04:28:05;26.77;;;23.98;;
46355;SDS011;32066;49.474;11.106;2022-08-19T04:30:38;27.52;;;24.63;;
46355;SDS011;32066;49.474;11.106;2022-08-19T04:33:06;26.17;;;23.38;;
46355;SDS011;32066;49.474;11.106;2022-08-19T04:35:35;30.13;;;23.63;;
46355;SDS011;32066;49.474;11.106;2022-08-19T04:38:03;27.33;;;24.45;;
46355;SDS011;32066;49.474;11.106;2022-08-19T04:40:31;28.00;;;24.77;;
46355;SDS011;32066;49.474;11.106;2022-08-19T04:43:17;29.30;;;24.92;;
46355;SDS011;32066;49.474;11.106;2022-08-19T04:45:45;28.02;;;25.00;;
46355;SDS011;32066;49.474;11.106;2022-08-19T04:48:12;28.60;;;25.20;;
46355;SDS011;32066;49.474;11.106;2022-08-19T04:50:40;26.48;;;23.52;;
46355;SDS011;32066;49.474;11.106;2022-08-19T04:53:08;26.17;;;23.35;;
46355;SDS011;32066;49.474;11.106;2022-08-19T04:55:38;23.50;;;21.05;;
46355;SDS011;32066;49.474;11.106;2022-08-19T04:58:05;25.75;;;23.05;;
46355;SDS011;32066;49.474;11.106;2022-08-19T05:00:36;26.67;;;23.52;;
46355;SDS011;32066;49.474;11.106;2022-08-19T05:03:04;25.80;;;22.98;;
46355;SDS011;32066;49.474;11.106;2022-08-19T05:05:31;25.95;;;23.17;;
46355;SDS011;32066;49.474;11.106;2022-08-19T05:07:59;25.73;;;22.92;;
46355;SDS011;32066;49.474;11.106;2022-08-19T05:10:26;25.27;;;21.80;;
46355;SDS011;32066;49.474;11.106;2022-08-19T05:12:53;26.65;;;23.77;;
46355;SDS011;32066;49.474;11.106;2022-08-19T05:15:19;25.27;;;22.50;;
46355;SDS011;32066;49.474;11.106;2022-08-19T05:17:48;25.70;;;22.95;;
46355;SDS011;32066;49.474;11.106;2022-08-19T05:20:28;25.70;;;21.70;;
46355;SDS011;32066;49.474;11.106;2022-08-19T05:23:13;25.48;;;22.70;;
46355;SDS011;32066;49.474;11.106;2022-08-19T05:25:40;26.02;;;23.23;;
46355;SDS011;32066;49.474;11.106;2022-08-19T05:28:07;26.20;;;23.60;;
46355;SDS011;32066;49.474;11.106;2022-08-19T05:30:34;26.40;;;23.65;;
46355;SDS011;32066;49.474;11.106;2022-08-19T05:33:02;24.25;;;21.85;;
46355;SDS011;32066;49.474;11.106;2022-08-19T05:35:29;25.25;;;22.45;;
46355;SDS011;32066;49.474;11.106;2022-08-19T05:37:56;25.50;;;22.02;;
46355;SDS011;32066;49.474;11.106;2022-08-19T05:40:23;26.23;;;22.70;;
46355;SDS011;32066;49.474;11.106;2022-08-19T05:42:51;26.95;;;24.15;;
46355;SDS011;32066;49.474;11.106;2022-08-19T05:45:18;25.42;;;22.67;;
46355;SDS011;32066;49.474;11.106;2022-08-19T05:47:46;24.90;;;22.20;;
46355;SDS011;32066;49.474;11.106;2022-08-19T05:50:14;25.10;;;22.50;;
46355;SDS011;32066;49.474;11.106;2022-08-19T05:52:42;24.77;;;22.17;;
46355;SDS011;32066;49.474;11.106;2022-08-19T05:55:10;26.27;;;23.05;;
46355;SDS011;32066;49.474;11.106;2022-08-19T05:57:37;25.33;;;22.73;;
46355;SDS011;32066;49.474;11.106;2022-08-19T06:00:05;26.50;;;23.13;;
46355;SDS011;32066;49.474;11.106;2022-08-19T06:02:37;27.58;;;24.42;;
46355;SDS011;32066;49.474;11.106;2022-08-19T06:05:05;26.48;;;23.60;;
46355;SDS011;32066;49.474;11.106;2022-08-19T06:07:35;26.23;;;23.35;;
46355;SDS011;32066;49.474;11.106;2022-08-19T06:10:03;26.23;;;22.50;;
46355;SDS011;32066;49.474;11.106;2022-08-19T06:12:31;26.92;;;22.77;;
46355;SDS011;32066;49.474;11.106;2022-08-19T06:14:59;25.65;;;22.92;;
46355;SDS011;32066;49.474;11.106;2022-08-19T06:17:27;24.35;;;21.75;;
46355;SDS011;32066;49.474;11.106;2022-08-19T06:19:55;24.17;;;21.20;;
46355;SDS011;32066;49.474;11.106;2022-08-19T06:22:23;23.23;;;20.80;;
46355;SDS011;32066;49.474;11.106;2022-08-19T06:24:51;27.52;;;21.95;;
46355;SDS011;32066;49.474;11.106;2022-08-19T06:27:19;23.20;;;20.70;;
46355;SDS011;32066;49.474;11.106;2022-08-19T06:29:46;23.80;;;21.17;;
46355;SDS011;32066;49.474;11.106;2022-08-19T06:32:14;22.38;;;20.13;;
46355;SDS011;32066;49.474;11.106;2022-08-19T06:34:43;20.95;;;18.73;;
46355;SDS011;32066;49.474;11.106;2022-08-19T06:37:10;18.40;;;16.50;;
46355;SDS011;32066;49.474;11.106;2022-08-19T06:39:39;20.52;;;17.98;;
46355;SDS011;32066;49.474;11.106;2022-08-19T06:42:09;19.42;;;17.33;;
46355;SDS011;32066;49.474;11.106;2022-08-19T06:44:39;17.65;;;15.73;;
46355;SDS011;32066;49.474;11.106;2022-08-19T06:47:08;16.60;;;14.98;;
46355;SDS011;32066;49.474;11.106;2022-08-19T06:49:36;19.33;;;16.15;;
46355;SDS011;32066;49.474;11.106;2022-08-19T06:52:03;17.85;;;16.05;;
46355;SDS011;32066;49.474;11.106;2022-08-19T06:54:30;18.52;;;16.52;;
46355;SDS011;32066;49.474;11.106;2022-08-19T06:56:58;18.15;;;16.20;;
46355;SDS011;32066;49.474;11.106;2022-08-19T06:59:28;17.67;;;15.77;;
46355;SDS011;32066;49.474;11.106;2022-08-19T07:01:57;17.67;;;14.52;;
46355;SDS011;32066;49.474;11.106;2022-08-19T07:04:26;18.45;;;14.32;;
46355;SDS011;32066;49.474;11.106;2022-08-19T07:06:57;15.00;;;13.40;;
46355;SDS011;32066;49.474;11.106;2022-08-19T07:09:25;14.82;;;13.23;;
46355;SDS011;32066;49.474;11.106;2022-08-19T07:11:53;15.15;;;13.55;;
46355;SDS011;32066;49.474;11.106;2022-08-19T07:14:22;14.90;;;12.82;;
46355;SDS011;32066;49.474;11.106;2022-08-19T07:16:54;15.27;;;12.82;;
46355;SDS011;32066;49.474;11.106;2022-08-19T07:19:23;15.07;;;13.05;;
46355;SDS011;32066;49.474;11.106;2022-08-19T07:21:51;15.60;;;12.30;;
46355;SDS011;32066;49.474;11.106;2022-08-19T07:24:19;14.15;;;11.90;;
46355;SDS011;32066;49.474;11.106;2022-08-19T07:26:48;15.75;;;13.68;;
46355;SDS011;32066;49.474;11.106;2022-08-19T07:29:16;14.13;;;12.63;;
46355;SDS011;32066;49.474;11.106;2022-08-19T07:31:44;14.40;;;12.05;;
46355;SDS011;32066;49.474;11.106;2022-08-19T07:34:12;14.75;;;13.23;;
46355;SDS011;32066;49.474;11.106;2022-08-19T07:36:40;16.20;;;13.30;;
46355;SDS011;32066;49.474;11.106;2022-08-19T07:39:10;17.02;;;14.18;;
46355;SDS011;32066;49.474;11.106;2022-08-19T07:41:39;16.15;;;14.45;;
46355;SDS011;32066;49.474;11.106;2022-08-19T07:44:07;19.50;;;16.02;;
46355;SDS011;32066;49.474;11.106;2022-08-19T07:46:35;26.95;;;15.70;;
46355;SDS011;32066;49.474;11.106;2022-08-19T07:49:05;18.48;;;14.80;;
46355;SDS011;32066;49.474;11.106;2022-08-19T07:51:35;16.90;;;15.07;;
46355;SDS011;32066;49.474;11.106;2022-08-19T07:54:03;17.35;;;15.20;;
46355;SDS011;32066;49.474;11.106;2022-08-19T07:56:30;17.35;;;15.55;;
46355;SDS011;32066;49.474;11.106;2022-08-19T07:58:57;18.33;;;15.10;;
46355;SDS011;32066;49.474;11.106;2022-08-19T08:01:24;18.75;;;14.45;;
46355;SDS011;32066;49.474;11.106;2022-08-19T08:03:53;19.58;;;17.17;;
46355;SDS011;32066;49.474;11.106;2022-08-19T08:06:40;17.42;;;15.60;;
46355;SDS011;32066;49.474;11.106;2022-08-19T08:11:54;19.85;;;16.25;;
46355;SDS011;32066;49.474;11.106;2022-08-19T08:14:25;19.38;;;17.33;;
46355;SDS011;32066;49.474;11.106;2022-08-19T08:16:53;18.58;;;16.40;;
46355;SDS011;32066;49.474;11.106;2022-08-19T08:19:21;19.60;;;17.20;;
46355;SDS011;32066;49.474;11.106;2022-08-19T08:21:51;21.67;;;16.60;;
46355;SDS011;32066;49.474;11.106;2022-08-19T08:24:19;18.45;;;15.90;;
46355;SDS011;32066;49.474;11.106;2022-08-19T08:26:46;19.40;;;16.42;;
46355;SDS011;32066;49.474;11.106;2022-08-19T08:29:13;21.80;;;16.60;;
46355;SDS011;32066;49.474;11.106;2022-08-19T08:31:42;18.75;;;15.07;;
46355;SDS011;32066;49.474;11.106;2022-08-19T08:34:10;21.33;;;16.60;;
46355;SDS011;32066;49.474;11.106;2022-08-19T08:36:38;20.13;;;15.45;;
46355;SDS011;32066;49.474;11.106;2022-08-19T08:39:08;18.52;;;16.00;;
46355;SDS011;32066;49.474;11.106;2022-08-19T08:41:43;23.75;;;17.85;;
46355;SDS011;32066;49.474;11.106;2022-08-19T08:44:19;20.77;;;17.30;;
46355;SDS011;32066;49.474;11.106;2022-08-19T08:46:49;20.52;;;16.63;;
46355;SDS011;32066;49.474;11.106;2022-08-19T08:49:23;18.92;;;16.50;;
46355;SDS011;32066;49.474;11.106;2022-08-19T08:51:58;19.13;;;16.15;;
46355;SDS011;32066;49.474;11.106;2022-08-19T08:54:30;22.40;;;17.55;;
46355;SDS011;32066;49.474;11.106;2022-08-19T08:57:02;19.77;;;16.45;;
46355;SDS011;32066;49.474;11.106;2022-08-19T08:59:31;17.60;;;15.52;;
46355;SDS011;32066;49.474;11.106;2022-08-19T09:02:02;19.17;;;16.83;;
46355;SDS011;32066;49.474;11.106;2022-08-19T09:04:30;20.63;;;17.00;;
46355;SDS011;32066;49.474;11.106;2022-08-19T09:07:00;20.67;;;17.63;;
46355;SDS011;32066;49.474;11.106;2022-08-19T09:09:42;23.48;;;19.65;;
46355;SDS011;32066;49.474;11.106;2022-08-19T09:12:15;24.33;;;20.33;;
46355;SDS011;32066;49.474;11.106;2022-08-19T09:14:48;25.60;;;21.13;;
46355;SDS011;32066;49.474;11.106;2022-08-19T09:17:19;25.85;;;22.02;;
46355;SDS011;32066;49.474;11.106;2022-08-19T09:19:54;26.67;;;22.27;;
46355;SDS011;32066;49.474;11.106;2022-08-19T09:22:22;26.75;;;22.05;;
46355;SDS011;32066;49.474;11.106;2022-08-19T09:24:53;28.10;;;23.00;;
46355;SDS011;32066;49.474;11.106;2022-08-19T09:27:21;26.67;;;21.73;;
46355;SDS011;32066;49.474;11.106;2022-08-19T09:29:50;25.13;;;21.70;;
46355;SDS011;32066;49.474;11.106;2022-08-19T09:32:17;27.42;;;22.85;;
46355;SDS011;32066;49.474;11.106;2022-08-19T09:34:44;29.63;;;23.02;;
46355;SDS011;32066;49.474;11.106;2022-08-19T09:37:11;28.88;;;23.45;;
46355;SDS011;32066;49.474;11.106;2022-08-19T09:39:38;30.58;;;24.10;;
46355;SDS011;32066;49.474;11.106;2022-08-19T09:42:09;28.55;;;22.77;;
46355;SDS011;32066;49.474;11.106;2022-08-19T09:44:38;25.52;;;22.45;;
46355;SDS011;32066;49.474;11.106;2022-08-19T09:47:06;26.25;;;22.40;;
46355;SDS011;32066;49.474;11.106;2022-08-19T09:49:34;27.27;;;22.25;;
46355;SDS011;32066;49.474;11.106;2022-08-19T09:52:03;25.27;;;21.42;;
46355;SDS011;32066;49.474;11.106;2022-08-19T09:54:29;25.23;;;21.20;;
46355;SDS011;32066;49.474;11.106;2022-08-19T09:56:58;24.67;;;21.30;;
46355;SDS011;32066;49.474;11.106;2022-08-19T09:59:27;23.48;;;20.20;;
46355;SDS011;32066;49.474;11.106;2022-08-19T10:01:55;25.17;;;20.55;;
46355;SDS011;32066;49.474;11.106;2022-08-19T10:04:22;23.85;;;20.50;;
46355;SDS011;32066;49.474;11.106;2022-08-19T10:07:09;26.15;;;20.52;;
46355;SDS011;32066;49.474;11.106;2022-08-19T10:09:36;26.88;;;21.95;;
46355;SDS011;32066;49.474;11.106;2022-08-19T10:12:03;25.50;;;21.10;;
46355;SDS011;32066;49.474;11.106;2022-08-19T10:14:33;26.25;;;22.17;;
46355;SDS011;32066;49.474;11.106;2022-08-19T10:17:00;26.23;;;21.60;;
46355;SDS011;32066;49.474;11.106;2022-08-19T10:19:28;29.30;;;20.88;;
46355;SDS011;32066;49.474;11.106;2022-08-19T10:22:02;25.80;;;20.95;;
46355;SDS011;32066;49.474;11.106;2022-08-19T10:24:29;28.38;;;21.52;;
46355;SDS011;32066;49.474;11.106;2022-08-19T10:26:57;24.95;;;21.08;;
46355;SDS011;32066;49.474;11.106;2022-08-19T10:29:24;25.70;;;20.48;;
46355;SDS011;32066;49.474;11.106;2022-08-19T10:31:54;25.08;;;21.50;;
46355;SDS011;32066;49.474;11.106;2022-08-19T10:34:21;27.83;;;21.75;;
46355;SDS011;32066;49.474;11.106;2022-08-19T10:36:49;27.15;;;19.95;;
46355;SDS011;32066;49.474;11.106;2022-08-19T10:39:16;26.17;;;21.95;;
46355;SDS011;32066;49.474;11.106;2022-08-19T10:41:43;28.05;;;20.85;;
46355;SDS011;32066;49.474;11.106;2022-08-19T10:44:11;25.65;;;20.70;;
46355;SDS011;32066;49.474;11.106;2022-08-19T10:46:40;25.38;;;20.13;;
46355;SDS011;32066;49.474;11.106;2022-08-19T10:49:13;22.75;;;19.83;;
46355;SDS011;32066;49.474;11.106;2022-08-19T10:51:40;23.92;;;20.40;;
46355;SDS011;32066;49.474;11.106;2022-08-19T10:54:25;24.20;;;20.38;;
46355;SDS011;32066;49.474;11.106;2022-08-19T10:57:13;23.83;;;19.55;;
46355;SDS011;32066;49.474;11.106;2022-08-19T10:59:39;22.45;;;18.95;;
46355;SDS011;32066;49.474;11.106;2022-08-19T11:02:07;23.95;;;19.45;;
46355;SDS011;32066;49.474;11.106;2022-08-19T11:04:37;23.92;;;20.52;;
46355;SDS011;32066;49.474;11.106;2022-08-19T11:07:06;22.75;;;19.05;;
46355;SDS011;32066;49.474;11.106;2022-08-19T11:09:36;21.63;;;18.52;;
46355;SDS011;32066;49.474;11.106;2022-08-19T11:12:04;22.77;;;19.38;;
46355;SDS011;32066;49.474;11.106;2022-08-19T11:14:33;22.63;;;19.60;;
46355;SDS011;32066;49.474;11.106;2022-08-19T11:17:00;21.42;;;19.00;;
46355;SDS011;32066;49.474;11.106;2022-08-19T11:19:27;24.42;;;19.38;;
46355;SDS011;32066;49.474;11.106;2022-08-19T11:21:56;23.33;;;20.05;;
46355;SDS011;32066;49.474;11.106;2022-08-19T11:24:26;21.40;;;18.63;;
46355;SDS011;32066;49.474;11.106;2022-08-19T11:26:54;22.70;;;18.33;;
46355;SDS011;32066;49.474;11.106;2022-08-19T11:29:29;23.23;;;19.40;;
46355;SDS011;32066;49.474;11.106;2022-08-19T11:31:57;21.40;;;18.80;;
46355;SDS011;32066;49.474;11.106;2022-08-19T11:34:26;22.98;;;19.50;;
46355;SDS011;32066;49.474;11.106;2022-08-19T11:36:55;22.15;;;19.15;;
46355;SDS011;32066;49.474;11.106;2022-08-19T11:39:25;21.38;;;18.80;;
46355;SDS011;32066;49.474;11.106;2022-08-19T11:41:53;22.83;;;18.00;;
46355;SDS011;32066;49.474;11.106;2022-08-19T11:44:21;21.63;;;18.25;;
46355;SDS011;32066;49.474;11.106;2022-08-19T11:46:47;24.38;;;20.17;;
46355;SDS011;32066;49.474;11.106;2022-08-19T11:49:15;24.08;;;18.33;;
46355;SDS011;32066;49.474;11.106;2022-08-19T11:51:43;24.27;;;20.52;;
46355;SDS011;32066;49.474;11.106;2022-08-19T11:54:13;22.92;;;20.48;;
46355;SDS011;32066;49.474;11.106;2022-08-19T11:56:42;23.08;;;20.60;;
46355;SDS011;32066;49.474;11.106;2022-08-19T11:59:10;22.40;;;20.00;;
46355;SDS011;32066;49.474;11.106;2022-08-19T12:01:37;20.67;;;18.35;;
46355;SDS011;32066;49.474;11.106;2022-08-19T12:04:06;25.05;;;20.48;;
46355;SDS011;32066;49.474;11.106;2022-08-19T12:06:32;21.83;;;17.95;;
46355;SDS011;32066;49.474;11.106;2022-08-19T12:09:01;23.35;;;20.92;;
46355;SDS011;32066;49.474;11.106;2022-08-19T12:11:32;26.00;;;19.80;;
46355;SDS011;32066;49.474;11.106;2022-08-19T12:13:59;21.85;;;18.77;;
46355;SDS011;32066;49.474;11.106;2022-08-19T12:16:27;21.63;;;18.58;;
46355;SDS011;32066;49.474;11.106;2022-08-19T12:18:55;19.88;;;17.75;;
46355;SDS011;32066;49.474;11.106;2022-08-19T12:21:25;22.90;;;19.88;;
46355;SDS011;32066;49.474;11.106;2022-08-19T12:23:54;20.73;;;18.45;;
46355;SDS011;32066;49.474;11.106;2022-08-19T12:26:22;21.45;;;19.13;;
46355;SDS011;32066;49.474;11.106;2022-08-19T12:28:51;24.42;;;19.33;;
46355;SDS011;32066;49.474;11.106;2022-08-19T12:31:18;21.60;;;19.13;;
46355;SDS011;32066;49.474;11.106;2022-08-19T12:33:45;21.63;;;18.58;;
46355;SDS011;32066;49.474;11.106;2022-08-19T12:36:13;20.23;;;17.30;;
46355;SDS011;32066;49.474;11.106;2022-08-19T12:38:42;21.05;;;18.77;;
46355;SDS011;32066;49.474;11.106;2022-08-19T12:41:10;21.45;;;18.50;;
46355;SDS011;32066;49.474;11.106;2022-08-19T12:43:39;20.02;;;17.38;;
46355;SDS011;32066;49.474;11.106;2022-08-19T12:46:07;20.35;;;18.20;;
46355;SDS011;32066;49.474;11.106;2022-08-19T12:48:35;19.27;;;17.15;;
46355;SDS011;32066;49.474;11.106;2022-08-19T12:51:05;21.00;;;18.20;;
46355;SDS011;32066;49.474;11.106;2022-08-19T12:53:34;24.73;;;19.67;;
46355;SDS011;32066;49.474;11.106;2022-08-19T12:56:01;21.63;;;19.23;;
46355;SDS011;32066;49.474;11.106;2022-08-19T12:58:30;21.02;;;18.52;;
46355;SDS011;32066;49.474;11.106;2022-08-19T13:00:59;21.95;;;18.67;;
46355;SDS011;32066;49.474;11.106;2022-08-19T13:03:33;22.83;;;19.10;;
46355;SDS011;32066;49.474;11.106;2022-08-19T13:06:00;22.40;;;19.38;;
46355;SDS011;32066;49.474;11.106;2022-08-19T13:08:26;23.35;;;19.45;;
46355;SDS011;32066;49.474;11.106;2022-08-19T13:10:53;22.60;;;20.17;;
46355;SDS011;32066;49.474;11.106;2022-08-19T13:13:20;23.80;;;20.48;;
46355;SDS011;32066;49.474;11.106;2022-08-19T13:15:47;22.67;;;20.15;;
46355;SDS011;32066;49.474;11.106;2022-08-19T13:18:14;22.48;;;19.75;;
46355;SDS011;32066;49.474;11.106;2022-08-19T13:20:42;21.08;;;18.85;;
46355;SDS011;32066;49.474;11.106;2022-08-19T13:23:09;22.67;;;20.15;;
46355;SDS011;32066;49.474;11.106;2022-08-19T13:25:36;24.88;;;21.55;;
46355;SDS011;32066;49.474;11.106;2022-08-19T13:28:03;26.15;;;22.23;;
46355;SDS011;32066;49.474;11.106;2022-08-19T13:30:31;25.27;;;21.65;;
46355;SDS011;32066;49.474;11.106;2022-08-19T13:33:16;25.90;;;22.80;;
46355;SDS011;32066;49.474;11.106;2022-08-19T13:35:46;25.58;;;21.77;;
46355;SDS011;32066;49.474;11.106;2022-08-19T13:38:15;24.77;;;21.95;;
46355;SDS011;32066;49.474;11.106;2022-08-19T13:40:43;24.60;;;21.42;;
46355;SDS011;32066;49.474;11.106;2022-08-19T13:43:11;23.33;;;20.88;;
46355;SDS011;32066;49.474;11.106;2022-08-19T13:45:39;24.23;;;21.50;;
46355;SDS011;32066;49.474;11.106;2022-08-19T13:48:06;23.13;;;20.33;;
46355;SDS011;32066;49.474;11.106;2022-08-19T13:50:35;23.13;;;20.23;;
46355;SDS011;32066;49.474;11.106;2022-08-19T13:53:08;22.52;;;19.27;;
46355;SDS011;32066;49.474;11.106;2022-08-19T13:55:38;22.50;;;18.92;;
46355;SDS011;32066;49.474;11.106;2022-08-19T13:58:05;19.88;;;17.35;;
46355;SDS011;32066;49.474;11.106;2022-08-19T14:00:33;20.02;;;16.98;;
46355;SDS011;32066;49.474;11.106;2022-08-19T14:03:01;20.33;;;18.23;;
46355;SDS011;32066;49.474;11.106;2022-08-19T14:05:29;22.13;;;18.13;;
46355;SDS011;32066;49.474;11.106;2022-08-19T14:07:57;20.20;;;17.10;;
46355;SDS011;32066;49.474;11.106;2022-08-19T14:10:26;20.77;;;18.52;;
46355;SDS011;32066;49.474;11.106;2022-08-19T14:12:56;20.65;;;18.20;;
46355;SDS011;32066;49.474;11.106;2022-08-19T14:15:24;18.80;;;15.65;;
46355;SDS011;32066;49.474;11.106;2022-08-19T14:17:52;18.30;;;15.45;;
46355;SDS011;32066;49.474;11.106;2022-08-19T14:20:19;16.67;;;14.48;;